Lordstown, Ohio
Current Conditions -  °F | °C
As of 3:51 AM on Monday 24 Nov 2014 (Local Time) from KYNG Reporting Station
Light Rain Light Rain  
Wind Chill: 56°   Ceiling: 1500
Heat Index: 56°   Visibility: 10mi
Dew Point: 53°   Wind: 14mph
Humidity: 90%   Direction: 160°SSE
Pressure: 29.31"   Gusts: 24mph
Location:  41.176°N, 80.8696°W
Report Text: KYNG 240851Z 16012G21KT 10SM -RA FEW009 BKN015 OVC030 13/12 A2931 RMK AO2 SLP922 P0001 60001 T01330117 56021
Loading
Personal Weather Stations






























Interactive Weather Map New forecast layout! Learn more

10-Day Weather Forecast

Advertisements
Track Severe Weather on mobile